sensor_id;sensor_type;location;lat;lon;timestamp;P1;durP1;ratioP1;P2;durP2;ratioP2
26512;SDS011;14186;53.822;10.152;2023-04-03T00:02:34;9.68;;;1.50;;
26512;SDS011;14186;53.822;10.152;2023-04-03T00:07:34;6.90;;;1.48;;
26512;SDS011;14186;53.822;10.152;2023-04-03T00:12:35;4.18;;;1.92;;
26512;SDS011;14186;53.822;10.152;2023-04-03T00:17:36;7.00;;;1.40;;
26512;SDS011;14186;53.822;10.152;2023-04-03T00:22:36;5.95;;;1.33;;
26512;SDS011;14186;53.822;10.152;2023-04-03T00:27:37;5.30;;;1.73;;
26512;SDS011;14186;53.822;10.152;2023-04-03T00:32:38;6.25;;;1.55;;
26512;SDS011;14186;53.822;10.152;2023-04-03T00:37:38;11.68;;;2.25;;
26512;SDS011;14186;53.822;10.152;2023-04-03T00:42:40;6.88;;;1.65;;
26512;SDS011;14186;53.822;10.152;2023-04-03T00:47:41;9.70;;;1.85;;
26512;SDS011;14186;53.822;10.152;2023-04-03T00:52:41;11.75;;;2.05;;
26512;SDS011;14186;53.822;10.152;2023-04-03T00:57:43;5.80;;;1.70;;
26512;SDS011;14186;53.822;10.152;2023-04-03T01:02:44;4.22;;;1.10;;
26512;SDS011;14186;53.822;10.152;2023-04-03T01:07:44;4.10;;;1.38;;
26512;SDS011;14186;53.822;10.152;2023-04-03T01:12:47;5.68;;;1.42;;
26512;SDS011;14186;53.822;10.152;2023-04-03T01:17:48;4.28;;;1.45;;
26512;SDS011;14186;53.822;10.152;2023-04-03T01:22:49;7.07;;;1.52;;
26512;SDS011;14186;53.822;10.152;2023-04-03T01:27:54;9.03;;;1.90;;
26512;SDS011;14186;53.822;10.152;2023-04-03T01:32:56;7.07;;;1.60;;
26512;SDS011;14186;53.822;10.152;2023-04-03T01:37:56;6.70;;;1.67;;
26512;SDS011;14186;53.822;10.152;2023-04-03T01:42:56;6.30;;;1.70;;
26512;SDS011;14186;53.822;10.152;2023-04-03T01:47:58;12.85;;;2.28;;
26512;SDS011;14186;53.822;10.152;2023-04-03T01:52:58;5.20;;;1.55;;
26512;SDS011;14186;53.822;10.152;2023-04-03T01:57:58;3.78;;;1.80;;
26512;SDS011;14186;53.822;10.152;2023-04-03T02:03:00;3.92;;;1.70;;
26512;SDS011;14186;53.822;10.152;2023-04-03T02:08:00;9.60;;;4.22;;
26512;SDS011;14186;53.822;10.152;2023-04-03T02:13:00;4.03;;;1.25;;
26512;SDS011;14186;53.822;10.152;2023-04-03T02:18:02;7.97;;;1.58;;
26512;SDS011;14186;53.822;10.152;2023-04-03T02:23:02;10.02;;;2.05;;
26512;SDS011;14186;53.822;10.152;2023-04-03T02:28:02;9.57;;;1.92;;
26512;SDS011;14186;53.822;10.152;2023-04-03T02:33:04;6.32;;;1.90;;
26512;SDS011;14186;53.822;10.152;2023-04-03T02:38:04;10.00;;;1.77;;
26512;SDS011;14186;53.822;10.152;2023-04-03T02:43:04;7.63;;;2.15;;
26512;SDS011;14186;53.822;10.152;2023-04-03T02:48:06;9.13;;;1.90;;
26512;SDS011;14186;53.822;10.152;2023-04-03T02:53:06;10.73;;;2.65;;
26512;SDS011;14186;53.822;10.152;2023-04-03T02:58:06;5.93;;;1.55;;
26512;SDS011;14186;53.822;10.152;2023-04-03T03:03:08;8.48;;;1.90;;
26512;SDS011;14186;53.822;10.152;2023-04-03T03:08:08;8.77;;;2.10;;
26512;SDS011;14186;53.822;10.152;2023-04-03T03:13:08;7.47;;;1.67;;
26512;SDS011;14186;53.822;10.152;2023-04-03T03:18:10;5.97;;;1.90;;
26512;SDS011;14186;53.822;10.152;2023-04-03T03:23:10;8.15;;;2.15;;
26512;SDS011;14186;53.822;10.152;2023-04-03T03:28:10;9.77;;;2.15;;
26512;SDS011;14186;53.822;10.152;2023-04-03T03:33:12;7.95;;;1.70;;
26512;SDS011;14186;53.822;10.152;2023-04-03T03:38:12;5.95;;;1.83;;
26512;SDS011;14186;53.822;10.152;2023-04-03T03:43:12;9.23;;;1.80;;
26512;SDS011;14186;53.822;10.152;2023-04-03T03:48:16;5.55;;;1.80;;
26512;SDS011;14186;53.822;10.152;2023-04-03T03:53:17;10.37;;;1.93;;
26512;SDS011;14186;53.822;10.152;2023-04-03T03:58:17;6.40;;;1.73;;
26512;SDS011;14186;53.822;10.152;2023-04-03T04:03:18;7.63;;;2.20;;
26512;SDS011;14186;53.822;10.152;2023-04-03T04:08:19;6.93;;;1.60;;
26512;SDS011;14186;53.822;10.152;2023-04-03T04:13:19;5.90;;;1.52;;
26512;SDS011;14186;53.822;10.152;2023-04-03T04:18:20;9.98;;;2.50;;
26512;SDS011;14186;53.822;10.152;2023-04-03T04:23:20;7.20;;;2.08;;
26512;SDS011;14186;53.822;10.152;2023-04-03T04:28:21;6.95;;;2.15;;
26512;SDS011;14186;53.822;10.152;2023-04-03T04:33:22;6.93;;;2.08;;
26512;SDS011;14186;53.822;10.152;2023-04-03T04:38:22;10.70;;;2.47;;
26512;SDS011;14186;53.822;10.152;2023-04-03T04:43:23;8.07;;;2.45;;
26512;SDS011;14186;53.822;10.152;2023-04-03T04:48:24;10.68;;;2.53;;
26512;SDS011;14186;53.822;10.152;2023-04-03T04:53:24;8.30;;;2.63;;
26512;SDS011;14186;53.822;10.152;2023-04-03T04:58:25;12.90;;;2.97;;
26512;SDS011;14186;53.822;10.152;2023-04-03T05:03:26;9.65;;;2.67;;
26512;SDS011;14186;53.822;10.152;2023-04-03T05:08:27;7.65;;;2.60;;
26512;SDS011;14186;53.822;10.152;2023-04-03T05:13:27;14.18;;;4.40;;
26512;SDS011;14186;53.822;10.152;2023-04-03T05:18:29;18.30;;;7.28;;
26512;SDS011;14186;53.822;10.152;2023-04-03T05:23:29;9.77;;;4.00;;
26512;SDS011;14186;53.822;10.152;2023-04-03T05:28:29;9.75;;;4.50;;
26512;SDS011;14186;53.822;10.152;2023-04-03T05:33:30;9.90;;;4.85;;
26512;SDS011;14186;53.822;10.152;2023-04-03T05:38:31;11.73;;;3.72;;
26512;SDS011;14186;53.822;10.152;2023-04-03T05:43:31;10.38;;;4.22;;
26512;SDS011;14186;53.822;10.152;2023-04-03T05:48:32;9.82;;;4.55;;
26512;SDS011;14186;53.822;10.152;2023-04-03T05:53:34;12.73;;;4.07;;
26512;SDS011;14186;53.822;10.152;2023-04-03T05:58:35;15.13;;;4.03;;
26512;SDS011;14186;53.822;10.152;2023-04-03T06:03:36;12.98;;;5.15;;
26512;SDS011;14186;53.822;10.152;2023-04-03T06:08:36;10.90;;;3.55;;
26512;SDS011;14186;53.822;10.152;2023-04-03T06:13:37;12.45;;;3.35;;
26512;SDS011;14186;53.822;10.152;2023-04-03T06:18:38;11.23;;;2.75;;
26512;SDS011;14186;53.822;10.152;2023-04-03T06:23:38;10.93;;;2.97;;
26512;SDS011;14186;53.822;10.152;2023-04-03T06:28:39;12.30;;;2.97;;
26512;SDS011;14186;53.822;10.152;2023-04-03T06:33:40;9.88;;;2.58;;
26512;SDS011;14186;53.822;10.152;2023-04-03T06:38:40;9.07;;;2.85;;
26512;SDS011;14186;53.822;10.152;2023-04-03T06:43:40;8.85;;;2.38;;
26512;SDS011;14186;53.822;10.152;2023-04-03T06:48:42;10.98;;;2.75;;
26512;SDS011;14186;53.822;10.152;2023-04-03T06:53:42;9.02;;;2.58;;
26512;SDS011;14186;53.822;10.152;2023-04-03T06:58:43;8.65;;;2.53;;
26512;SDS011;14186;53.822;10.152;2023-04-03T07:03:45;6.88;;;2.40;;
26512;SDS011;14186;53.822;10.152;2023-04-03T07:08:45;5.97;;;1.98;;
26512;SDS011;14186;53.822;10.152;2023-04-03T07:13:46;5.80;;;2.08;;
26512;SDS011;14186;53.822;10.152;2023-04-03T07:18:47;7.63;;;2.05;;
26512;SDS011;14186;53.822;10.152;2023-04-03T07:23:47;12.20;;;1.83;;
26512;SDS011;14186;53.822;10.152;2023-04-03T07:28:48;8.07;;;1.88;;
26512;SDS011;14186;53.822;10.152;2023-04-03T07:33:50;5.63;;;2.00;;
26512;SDS011;14186;53.822;10.152;2023-04-03T07:38:50;5.43;;;2.15;;
26512;SDS011;14186;53.822;10.152;2023-04-03T07:43:50;6.95;;;1.73;;
26512;SDS011;14186;53.822;10.152;2023-04-03T07:48:52;5.40;;;1.08;;
26512;SDS011;14186;53.822;10.152;2023-04-03T07:53:52;8.88;;;1.23;;
26512;SDS011;14186;53.822;10.152;2023-04-03T07:58:52;8.02;;;1.00;;
26512;SDS011;14186;53.822;10.152;2023-04-03T08:03:53;6.07;;;0.88;;
26512;SDS011;14186;53.822;10.152;2023-04-03T08:08:54;3.58;;;0.77;;
26512;SDS011;14186;53.822;10.152;2023-04-03T08:13:54;3.67;;;0.90;;
26512;SDS011;14186;53.822;10.152;2023-04-03T08:18:55;4.60;;;1.75;;
26512;SDS011;14186;53.822;10.152;2023-04-03T08:23:56;3.58;;;0.70;;
26512;SDS011;14186;53.822;10.152;2023-04-03T08:28:56;6.85;;;0.90;;
26512;SDS011;14186;53.822;10.152;2023-04-03T08:33:57;15.85;;;2.10;;
26512;SDS011;14186;53.822;10.152;2023-04-03T08:38:58;2.20;;;0.60;;
26512;SDS011;14186;53.822;10.152;2023-04-03T08:44:01;5.38;;;1.13;;
26512;SDS011;14186;53.822;10.152;2023-04-03T08:49:03;3.78;;;0.82;;
26512;SDS011;14186;53.822;10.152;2023-04-03T08:54:05;4.40;;;0.47;;
26512;SDS011;14186;53.822;10.152;2023-04-03T08:59:09;2.95;;;0.80;;
26512;SDS011;14186;53.822;10.152;2023-04-03T09:04:12;3.85;;;0.60;;
26512;SDS011;14186;53.822;10.152;2023-04-03T09:09:14;3.05;;;0.60;;
26512;SDS011;14186;53.822;10.152;2023-04-03T09:14:15;3.60;;;0.63;;
26512;SDS011;14186;53.822;10.152;2023-04-03T09:19:21;4.00;;;0.82;;
26512;SDS011;14186;53.822;10.152;2023-04-03T09:24:23;3.28;;;0.70;;
26512;SDS011;14186;53.822;10.152;2023-04-03T09:29:23;4.57;;;0.80;;
26512;SDS011;14186;53.822;10.152;2023-04-03T09:34:26;2.42;;;0.90;;
26512;SDS011;14186;53.822;10.152;2023-04-03T09:39:28;5.32;;;0.88;;
26512;SDS011;14186;53.822;10.152;2023-04-03T09:44:29;2.72;;;0.70;;
26512;SDS011;14186;53.822;10.152;2023-04-03T09:49:31;1.23;;;0.47;;
26512;SDS011;14186;53.822;10.152;2023-04-03T09:54:32;5.30;;;0.50;;
26512;SDS011;14186;53.822;10.152;2023-04-03T09:59:33;3.03;;;0.70;;
26512;SDS011;14186;53.822;10.152;2023-04-03T10:04:39;3.33;;;0.60;;
26512;SDS011;14186;53.822;10.152;2023-04-03T10:09:40;5.47;;;0.93;;
26512;SDS011;14186;53.822;10.152;2023-04-03T10:14:40;2.72;;;0.70;;
26512;SDS011;14186;53.822;10.152;2023-04-03T10:19:55;2.88;;;0.68;;
26512;SDS011;14186;53.822;10.152;2023-04-03T10:25:00;3.90;;;0.73;;
26512;SDS011;14186;53.822;10.152;2023-04-03T10:30:04;2.70;;;0.60;;
26512;SDS011;14186;53.822;10.152;2023-04-03T10:35:15;2.10;;;0.73;;
26512;SDS011;14186;53.822;10.152;2023-04-03T10:40:20;7.72;;;1.08;;
26512;SDS011;14186;53.822;10.152;2023-04-03T10:45:24;6.55;;;0.82;;
26512;SDS011;14186;53.822;10.152;2023-04-03T10:50:29;6.03;;;0.80;;
26512;SDS011;14186;53.822;10.152;2023-04-03T10:55:32;4.03;;;0.68;;
26512;SDS011;14186;53.822;10.152;2023-04-03T11:00:35;4.60;;;1.13;;
26512;SDS011;14186;53.822;10.152;2023-04-03T11:05:39;3.00;;;0.57;;
26512;SDS011;14186;53.822;10.152;2023-04-03T11:10:41;5.65;;;0.80;;
26512;SDS011;14186;53.822;10.152;2023-04-03T11:15:41;3.20;;;0.73;;
26512;SDS011;14186;53.822;10.152;2023-04-03T11:20:46;4.47;;;1.65;;
26512;SDS011;14186;53.822;10.152;2023-04-03T11:25:47;4.30;;;1.00;;
26512;SDS011;14186;53.822;10.152;2023-04-03T11:30:51;4.80;;;0.90;;
26512;SDS011;14186;53.822;10.152;2023-04-03T11:35:56;3.80;;;1.17;;
26512;SDS011;14186;53.822;10.152;2023-04-03T11:40:57;2.75;;;0.90;;
26512;SDS011;14186;53.822;10.152;2023-04-03T11:45:58;5.45;;;0.98;;
26512;SDS011;14186;53.822;10.152;2023-04-03T11:51:00;1.65;;;0.50;;
26512;SDS011;14186;53.822;10.152;2023-04-03T11:56:02;1.70;;;0.57;;
26512;SDS011;14186;53.822;10.152;2023-04-03T12:01:06;4.95;;;0.80;;
26512;SDS011;14186;53.822;10.152;2023-04-03T12:11:28;2.83;;;0.77;;
26512;SDS011;14186;53.822;10.152;2023-04-03T12:16:29;3.40;;;1.10;;
26512;SDS011;14186;53.822;10.152;2023-04-03T12:26:51;7.25;;;1.05;;
26512;SDS011;14186;53.822;10.152;2023-04-03T12:32:05;5.18;;;0.80;;
26512;SDS011;14186;53.822;10.152;2023-04-03T12:37:07;4.43;;;0.68;;
26512;SDS011;14186;53.822;10.152;2023-04-03T12:42:15;2.70;;;1.10;;
26512;SDS011;14186;53.822;10.152;2023-04-03T12:47:25;6.85;;;1.15;;
26512;SDS011;14186;53.822;10.152;2023-04-03T12:52:30;2.53;;;0.80;;
26512;SDS011;14186;53.822;10.152;2023-04-03T12:57:32;3.75;;;1.10;;
26512;SDS011;14186;53.822;10.152;2023-04-03T13:02:32;3.92;;;0.70;;
26512;SDS011;14186;53.822;10.152;2023-04-03T13:07:33;4.13;;;1.42;;
26512;SDS011;14186;53.822;10.152;2023-04-03T13:12:44;7.85;;;0.90;;
26512;SDS011;14186;53.822;10.152;2023-04-03T13:17:45;3.70;;;0.70;;
26512;SDS011;14186;53.822;10.152;2023-04-03T13:22:47;3.78;;;0.82;;
26512;SDS011;14186;53.822;10.152;2023-04-03T13:27:49;6.43;;;1.10;;
26512;SDS011;14186;53.822;10.152;2023-04-03T13:32:50;4.75;;;1.73;;
26512;SDS011;14186;53.822;10.152;2023-04-03T13:37:53;4.55;;;1.13;;
26512;SDS011;14186;53.822;10.152;2023-04-03T13:43:03;5.03;;;1.05;;
26512;SDS011;14186;53.822;10.152;2023-04-03T13:48:08;1.83;;;0.80;;
26512;SDS011;14186;53.822;10.152;2023-04-03T13:53:10;2.97;;;0.80;;
26512;SDS011;14186;53.822;10.152;2023-04-03T13:58:22;4.15;;;1.42;;
26512;SDS011;14186;53.822;10.152;2023-04-03T14:03:23;4.47;;;1.05;;
26512;SDS011;14186;53.822;10.152;2023-04-03T14:08:25;4.55;;;1.38;;
26512;SDS011;14186;53.822;10.152;2023-04-03T14:13:28;3.28;;;0.90;;
26512;SDS011;14186;53.822;10.152;2023-04-03T14:18:29;3.72;;;1.20;;
26512;SDS011;14186;53.822;10.152;2023-04-03T14:23:29;4.55;;;0.90;;
26512;SDS011;14186;53.822;10.152;2023-04-03T14:28:31;2.55;;;0.88;;
26512;SDS011;14186;53.822;10.152;2023-04-03T14:33:32;2.90;;;0.73;;
26512;SDS011;14186;53.822;10.152;2023-04-03T14:38:32;3.08;;;0.73;;
26512;SDS011;14186;53.822;10.152;2023-04-03T14:43:34;3.65;;;1.20;;
26512;SDS011;14186;53.822;10.152;2023-04-03T14:48:34;4.53;;;1.02;;
26512;SDS011;14186;53.822;10.152;2023-04-03T14:53:34;3.97;;;0.85;;
26512;SDS011;14186;53.822;10.152;2023-04-03T14:58:36;3.05;;;0.98;;
26512;SDS011;14186;53.822;10.152;2023-04-03T15:03:36;3.47;;;0.88;;
26512;SDS011;14186;53.822;10.152;2023-04-03T15:08:36;5.88;;;1.08;;
26512;SDS011;14186;53.822;10.152;2023-04-03T15:13:38;2.92;;;0.77;;
26512;SDS011;14186;53.822;10.152;2023-04-03T15:18:38;2.38;;;0.85;;
26512;SDS011;14186;53.822;10.152;2023-04-03T15:23:38;2.70;;;1.10;;
26512;SDS011;14186;53.822;10.152;2023-04-03T15:28:40;3.50;;;0.98;;
26512;SDS011;14186;53.822;10.152;2023-04-03T15:33:41;7.70;;;1.38;;
26512;SDS011;14186;53.822;10.152;2023-04-03T15:38:41;3.40;;;1.15;;
26512;SDS011;14186;53.822;10.152;2023-04-03T15:43:43;5.22;;;1.65;;
26512;SDS011;14186;53.822;10.152;2023-04-03T15:48:43;5.88;;;1.10;;
26512;SDS011;14186;53.822;10.152;2023-04-03T15:53:43;3.55;;;1.10;;
26512;SDS011;14186;53.822;10.152;2023-04-03T15:58:45;6.13;;;1.13;;
26512;SDS011;14186;53.822;10.152;2023-04-03T16:03:45;3.75;;;1.65;;
26512;SDS011;14186;53.822;10.152;2023-04-03T16:08:46;5.95;;;1.42;;
26512;SDS011;14186;53.822;10.152;2023-04-03T16:13:48;4.85;;;1.13;;
26512;SDS011;14186;53.822;10.152;2023-04-03T16:18:48;9.85;;;2.05;;
26512;SDS011;14186;53.822;10.152;2023-04-03T16:23:49;5.38;;;2.60;;
26512;SDS011;14186;53.822;10.152;2023-04-03T16:28:51;8.27;;;1.65;;
26512;SDS011;14186;53.822;10.152;2023-04-03T16:33:51;5.10;;;1.50;;
26512;SDS011;14186;53.822;10.152;2023-04-03T16:38:51;7.38;;;1.20;;
26512;SDS011;14186;53.822;10.152;2023-04-03T16:43:53;5.90;;;1.35;;
26512;SDS011;14186;53.822;10.152;2023-04-03T16:48:53;4.88;;;1.60;;
26512;SDS011;14186;53.822;10.152;2023-04-03T16:53:53;8.63;;;2.17;;
26512;SDS011;14186;53.822;10.152;2023-04-03T16:58:55;5.15;;;1.88;;
26512;SDS011;14186;53.822;10.152;2023-04-03T17:03:55;2.35;;;0.95;;
26512;SDS011;14186;53.822;10.152;2023-04-03T17:08:56;2.90;;;0.95;;
26512;SDS011;14186;53.822;10.152;2023-04-03T17:13:58;6.03;;;1.33;;
26512;SDS011;14186;53.822;10.152;2023-04-03T17:18:58;6.30;;;1.13;;
26512;SDS011;14186;53.822;10.152;2023-04-03T17:23:59;4.60;;;1.08;;
26512;SDS011;14186;53.822;10.152;2023-04-03T17:29:02;4.20;;;1.05;;
26512;SDS011;14186;53.822;10.152;2023-04-03T17:34:02;2.78;;;1.05;;
26512;SDS011;14186;53.822;10.152;2023-04-03T17:39:02;6.45;;;1.55;;
26512;SDS011;14186;53.822;10.152;2023-04-03T17:44:04;3.97;;;1.60;;
26512;SDS011;14186;53.822;10.152;2023-04-03T17:49:04;5.38;;;1.60;;
26512;SDS011;14186;53.822;10.152;2023-04-03T17:54:04;4.38;;;1.20;;
26512;SDS011;14186;53.822;10.152;2023-04-03T17:59:06;8.73;;;2.13;;
26512;SDS011;14186;53.822;10.152;2023-04-03T18:04:06;4.60;;;1.40;;
26512;SDS011;14186;53.822;10.152;2023-04-03T18:09:07;4.07;;;1.40;;
26512;SDS011;14186;53.822;10.152;2023-04-03T18:14:10;5.63;;;1.38;;
26512;SDS011;14186;53.822;10.152;2023-04-03T18:19:11;7.72;;;1.30;;
26512;SDS011;14186;53.822;10.152;2023-04-03T18:24:13;10.02;;;1.70;;
26512;SDS011;14186;53.822;10.152;2023-04-03T18:29:15;7.40;;;1.52;;
26512;SDS011;14186;53.822;10.152;2023-04-03T18:34:16;7.55;;;2.40;;
26512;SDS011;14186;53.822;10.152;2023-04-03T18:39:16;11.25;;;2.35;;
26512;SDS011;14186;53.822;10.152;2023-04-03T18:44:18;3.33;;;1.17;;
26512;SDS011;14186;53.822;10.152;2023-04-03T18:49:19;4.72;;;1.83;;
26512;SDS011;14186;53.822;10.152;2023-04-03T18:54:20;3.60;;;1.52;;
26512;SDS011;14186;53.822;10.152;2023-04-03T18:59:21;5.63;;;1.70;;
26512;SDS011;14186;53.822;10.152;2023-04-03T19:04:21;6.18;;;1.88;;
26512;SDS011;14186;53.822;10.152;2023-04-03T19:09:22;4.93;;;1.65;;
26512;SDS011;14186;53.822;10.152;2023-04-03T19:14:25;4.38;;;1.25;;
26512;SDS011;14186;53.822;10.152;2023-04-03T19:19:25;7.30;;;1.85;;
26512;SDS011;14186;53.822;10.152;2023-04-03T19:24:25;5.78;;;1.30;;
26512;SDS011;14186;53.822;10.152;2023-04-03T19:29:27;5.10;;;1.80;;
26512;SDS011;14186;53.822;10.152;2023-04-03T19:34:27;5.15;;;1.73;;
26512;SDS011;14186;53.822;10.152;2023-04-03T19:39:27;4.38;;;1.27;;
26512;SDS011;14186;53.822;10.152;2023-04-03T19:44:29;4.40;;;1.30;;
26512;SDS011;14186;53.822;10.152;2023-04-03T19:49:29;10.52;;;2.15;;
26512;SDS011;14186;53.822;10.152;2023-04-03T19:54:29;7.15;;;1.85;;
26512;SDS011;14186;53.822;10.152;2023-04-03T19:59:31;7.40;;;1.60;;
26512;SDS011;14186;53.822;10.152;2023-04-03T20:04:31;3.90;;;1.30;;
26512;SDS011;14186;53.822;10.152;2023-04-03T20:09:31;7.95;;;1.38;;
26512;SDS011;14186;53.822;10.152;2023-04-03T20:14:33;3.10;;;1.00;;
26512;SDS011;14186;53.822;10.152;2023-04-03T20:19:33;4.68;;;1.50;;
26512;SDS011;14186;53.822;10.152;2023-04-03T20:24:33;4.43;;;1.73;;
26512;SDS011;14186;53.822;10.152;2023-04-03T20:29:35;5.53;;;1.80;;
26512;SDS011;14186;53.822;10.152;2023-04-03T20:34:35;4.90;;;1.40;;
26512;SDS011;14186;53.822;10.152;2023-04-03T20:39:35;4.95;;;1.60;;
26512;SDS011;14186;53.822;10.152;2023-04-03T20:44:37;7.18;;;2.70;;
26512;SDS011;14186;53.822;10.152;2023-04-03T20:49:37;7.63;;;2.45;;
26512;SDS011;14186;53.822;10.152;2023-04-03T20:54:38;4.72;;;2.03;;
26512;SDS011;14186;53.822;10.152;2023-04-03T20:59:39;7.53;;;1.50;;
26512;SDS011;14186;53.822;10.152;2023-04-03T21:04:41;6.70;;;2.28;;
26512;SDS011;14186;53.822;10.152;2023-04-03T21:20:21;9.60;;;2.78;;
26512;SDS011;14186;53.822;10.152;2023-04-03T21:25:21;7.72;;;2.17;;
26512;SDS011;14186;53.822;10.152;2023-04-03T21:30:21;6.03;;;2.03;;
26512;SDS011;14186;53.822;10.152;2023-04-03T21:35:22;6.68;;;2.45;;
26512;SDS011;14186;53.822;10.152;2023-04-03T21:40:23;6.97;;;2.45;;
26512;SDS011;14186;53.822;10.152;2023-04-03T21:45:23;6.50;;;2.05;;
26512;SDS011;14186;53.822;10.152;2023-04-03T21:50:24;11.75;;;2.38;;
26512;SDS011;14186;53.822;10.152;2023-04-03T21:55:25;7.80;;;2.65;;
26512;SDS011;14186;53.822;10.152;2023-04-03T22:00:25;7.00;;;2.22;;
26512;SDS011;14186;53.822;10.152;2023-04-03T22:05:26;6.75;;;2.17;;
26512;SDS011;14186;53.822;10.152;2023-04-03T22:10:26;8.85;;;3.47;;
26512;SDS011;14186;53.822;10.152;2023-04-03T22:15:27;10.50;;;4.10;;
26512;SDS011;14186;53.822;10.152;2023-04-03T22:20:28;11.98;;;3.60;;
26512;SDS011;14186;53.822;10.152;2023-04-03T22:25:28;9.43;;;4.10;;
26512;SDS011;14186;53.822;10.152;2023-04-03T22:30:29;8.70;;;3.20;;
26512;SDS011;14186;53.822;10.152;2023-04-03T22:35:30;11.30;;;4.10;;
26512;SDS011;14186;53.822;10.152;2023-04-03T22:40:30;8.13;;;3.15;;
26512;SDS011;14186;53.822;10.152;2023-04-03T22:45:30;7.47;;;3.13;;
26512;SDS011;14186;53.822;10.152;2023-04-03T22:50:32;5.97;;;3.42;;
26512;SDS011;14186;53.822;10.152;2023-04-03T22:55:32;11.50;;;3.25;;
26512;SDS011;14186;53.822;10.152;2023-04-03T23:00:32;7.03;;;2.63;;
26512;SDS011;14186;53.822;10.152;2023-04-03T23:05:34;10.63;;;3.08;;
26512;SDS011;14186;53.822;10.152;2023-04-03T23:10:34;8.68;;;3.80;;
26512;SDS011;14186;53.822;10.152;2023-04-03T23:15:34;6.75;;;3.03;;
26512;SDS011;14186;53.822;10.152;2023-04-03T23:20:36;7.78;;;3.13;;
26512;SDS011;14186;53.822;10.152;2023-04-03T23:25:36;8.15;;;2.80;;
26512;SDS011;14186;53.822;10.152;2023-04-03T23:30:36;7.00;;;2.80;;
26512;SDS011;14186;53.822;10.152;2023-04-03T23:35:41;8.27;;;2.95;;
26512;SDS011;14186;53.822;10.152;2023-04-03T23:45:43;9.07;;;3.08;;
26512;SDS011;14186;53.822;10.152;2023-04-03T23:50:44;5.65;;;2.90;;
26512;SDS011;14186;53.822;10.152;2023-04-03T23:55:44;6.35;;;2.63;;
